Andalusia, AL (36420)

4:07 PM CDT on September 04, 2015 (GMT -0500)
Chigger Hill off Moore Rd | | Change Station
CLOSE
Current Station
Personal Weather Station
Location: Andalusia, AL
Elevation: 280 ft
Nearby Weather Stations

Elev 280 ft 31.25 °N, 86.50 °W | Updated 7 seconds ago

Partly Cloudy
Partly Cloudy
90.0 °F
Feels Like 100 °F
N
0.0
Wind Variable Wind from ESE
Gusts 4.0 mph

Today
High -- | Low -- °F
--% Chance of Precip.
Yesterday
High -- | Low -- °F
Precip. -- in
6:24 AM 7:06 PM
Waning Gibbous, 56% visible
Pressure 29.94 in
Visibility 10.0 miles
Clouds Few 11000 ft
Heat Index 100 °F
Dew Point 74 °F
Humidity 60%
Rainfall 0.01 in
Snow Depth Not available.
UV 5 out of 12
Pollen 8.90 out of 12
Air Quality Not available.
Flu Activity Not available.
METAR K79J 042056Z AUTO 00000KT 10SM FEW110 31/24 A2995 RMK AO2 TSB30E48RAB25E43 SLP137 P0001 60001 T03060244 55008
Pressure 29.94 in
Visibility 10.0 miles
Clouds Few 11000 ft
Heat Index 100 °F
Dew Point 74 °F
Humidity 60%
Rainfall 0.01 in
Snow Depth Not available.
UV 5 out of 12
Pollen 8.90 out of 12
Air Quality Not available.
Flu Activity Not available.
METAR K79J 042056Z AUTO 00000KT 10SM FEW110 31/24 A2995 RMK AO2 TSB30E48RAB25E43 SLP137 P0001 60001 T03060244 55008

10-Day Weather Forecast

×

Almanac

Astronomy

Sep. 04, 2015 Rise Set
Actual Time
Civil Twilight
Nautical Twilight
Astronomical Twilight
Moon
Length of Visible Light
Length of Day
Tomorrow will be .
, % of the Moon is Illuminated

Today's Extremes

State Highs State Lows

Community

WunderPhotos

Upload Photos

1,852,290 photos uploaded!

WunderBlogs® & News

Nearby

Air Quality

  Air Quality AQ Index Pollutant
Not available.

Snow Depth

Station Depth Elevation

Earthquake Activity

City Distance Mag. Time & Date
Minimum magnitude displayed is 2.5.

Coastal Water Temperatures

Place Temperature

Stations

Nearby Weather Stations

Station Location Temp. Windchill Dew Point Humidity Wind Precip. Elev Updated Type